createdAt,value
2019-05-30T00:01:30.111Z,16.40
2019-05-30T00:06:35.018Z,16.40
2019-05-30T00:11:39.997Z,16.40
2019-05-30T00:16:45.154Z,16.30
2019-05-30T00:21:50.153Z,16.30
2019-05-30T00:26:56.248Z,16.30
2019-05-30T00:32:01.659Z,16.20
2019-05-30T00:37:06.634Z,16.30
2019-05-30T00:42:12.181Z,16.30
2019-05-30T00:47:17.398Z,16.20
2019-05-30T00:52:22.779Z,16.30
2019-05-30T00:57:28.076Z,16.30
2019-05-30T01:02:33.601Z,16.30
2019-05-30T01:07:38.610Z,16.40
2019-05-30T01:12:43.905Z,16.30
2019-05-30T01:17:49.078Z,16.20
2019-05-30T01:22:54.397Z,16.30
2019-05-30T01:27:59.521Z,16.10
2019-05-30T01:33:05.894Z,16.30
2019-05-30T01:38:11.097Z,16.30
2019-05-30T01:43:16.175Z,16.20
2019-05-30T01:48:21.718Z,16.20
2019-05-30T01:53:26.718Z,16.10
2019-05-30T01:58:32.230Z,16.20
2019-05-30T02:03:37.287Z,16.20
2019-05-30T02:08:42.269Z,16.20
2019-05-30T02:13:48.013Z,16.10
2019-05-30T02:18:53.783Z,16.10
2019-05-30T02:23:59.791Z,16.10
2019-05-30T02:29:04.849Z,16.10
2019-05-30T02:34:12.162Z,16.10
2019-05-30T02:39:17.260Z,16.10
2019-05-30T02:44:22.554Z,16.00
2019-05-30T02:49:28.693Z,16.10
2019-05-30T02:54:33.627Z,16.00
2019-05-30T02:59:38.642Z,16.00
2019-05-30T03:04:43.960Z,16.00
2019-05-30T03:09:49.410Z,16.00
2019-05-30T03:14:54.787Z,16.00
2019-05-30T03:20:05.029Z,16.00
2019-05-30T03:25:10.509Z,16.00
2019-05-30T03:30:25.575Z,16.00
2019-05-30T03:35:29.471Z,16.10
2019-05-30T03:40:30.249Z,16.10
2019-05-30T03:45:37.984Z,16.10
2019-05-30T03:50:46.282Z,16.10
2019-05-30T03:55:56.616Z,16.10
2019-05-30T04:01:05.893Z,16.00
2019-05-30T04:06:22.625Z,16.10
2019-05-30T04:11:38.278Z,15.90
2019-05-30T04:16:43.246Z,16.00
2019-05-30T04:21:48.223Z,16.00
2019-05-30T04:26:53.582Z,15.90
2019-05-30T04:31:58.971Z,15.90
2019-05-30T04:37:04.030Z,15.90
2019-05-30T04:42:09.360Z,15.90
2019-05-30T04:47:16.003Z,15.90
2019-05-30T04:52:24.593Z,15.90
2019-05-30T04:57:28.511Z,15.90
2019-05-30T05:02:33.409Z,15.90
2019-05-30T05:07:38.599Z,15.90
2019-05-30T05:12:43.575Z,15.90
2019-05-30T05:17:48.625Z,15.90
2019-05-30T05:22:54.021Z,15.80
2019-05-30T05:27:59.189Z,15.90
2019-05-30T05:33:04.164Z,15.90
2019-05-30T05:38:09.830Z,16.00
2019-05-30T05:43:16.559Z,16.00
2019-05-30T05:48:22.607Z,15.90
2019-05-30T05:53:28.867Z,16.00
2019-05-30T05:58:34.490Z,16.00
2019-05-30T06:03:39.414Z,16.00
2019-05-30T06:08:44.465Z,16.00
2019-05-30T06:13:49.722Z,15.90
2019-05-30T06:18:55.333Z,16.00
2019-05-30T06:24:00.262Z,16.00
2019-05-30T06:29:05.506Z,16.00
2019-05-30T06:34:10.445Z,16.10
2019-05-30T06:39:15.357Z,16.20
2019-05-30T06:44:21.781Z,16.20
2019-05-30T06:49:27.074Z,16.20
2019-05-30T06:54:33.715Z,16.30
2019-05-30T06:59:39.166Z,16.40
2019-05-30T07:04:51.762Z,16.70
2019-05-30T07:09:52.421Z,16.80
2019-05-30T07:14:57.554Z,16.80
2019-05-30T07:20:02.666Z,16.70
2019-05-30T07:25:08.678Z,16.80
2019-05-30T07:30:15.065Z,16.70
2019-05-30T07:35:20.096Z,16.80
2019-05-30T07:40:26.485Z,16.80
2019-05-30T07:45:33.040Z,16.80
2019-05-30T07:50:38.830Z,16.90
2019-05-30T07:55:44.613Z,16.90
2019-05-30T08:00:50.462Z,16.90
2019-05-30T08:05:56.088Z,16.80
2019-05-30T08:11:09.414Z,16.80
2019-05-30T08:16:08.670Z,16.90
2019-05-30T08:21:13.858Z,16.90
2019-05-30T08:26:19.366Z,17.10
2019-05-30T08:31:24.684Z,17.30
2019-05-30T08:36:30.834Z,17.30
2019-05-30T08:41:37.284Z,17.80
2019-05-30T08:46:42.986Z,17.70
2019-05-30T08:51:48.406Z,17.80
2019-05-30T08:56:53.714Z,18.00
2019-05-30T09:01:58.934Z,18.40
2019-05-30T09:07:04.343Z,18.50
2019-05-30T09:12:10.319Z,19.00
2019-05-30T09:17:15.862Z,18.80
2019-05-30T09:22:20.845Z,19.10
2019-05-30T09:27:25.868Z,19.00
2019-05-30T09:32:31.611Z,19.00
2019-05-30T09:37:36.919Z,18.90
2019-05-30T09:42:44.125Z,18.80
2019-05-30T09:47:49.305Z,18.70
2019-05-30T09:52:54.849Z,18.90
2019-05-30T09:58:00.410Z,19.00
2019-05-30T10:03:06.238Z,19.00
2019-05-30T10:08:11.304Z,19.00
2019-05-30T10:13:16.434Z,19.10
2019-05-30T10:18:21.432Z,19.20
2019-05-30T10:23:26.687Z,19.50
2019-05-30T10:28:31.944Z,19.80
2019-05-30T10:33:37.519Z,19.90
2019-05-30T10:38:42.438Z,19.80
2019-05-30T10:43:49.084Z,19.90
2019-05-30T10:48:54.759Z,19.90
2019-05-30T10:53:59.894Z,20.00
2019-05-30T10:59:05.434Z,19.90
2019-05-30T11:04:11.050Z,19.50
2019-05-30T11:09:19.266Z,19.70
2019-05-30T11:14:24.877Z,19.90
2019-05-30T11:19:30.227Z,19.90
2019-05-30T11:24:35.223Z,19.90
2019-05-30T11:29:40.470Z,19.80
2019-05-30T11:34:45.656Z,20.00
2019-05-30T11:39:51.104Z,20.00
2019-05-30T11:44:57.356Z,19.80
2019-05-30T11:50:04.986Z,20.10
2019-05-30T11:55:10.529Z,20.20
2019-05-30T12:00:16.765Z,20.10
2019-05-30T12:05:24.806Z,19.80
2019-05-30T12:10:30.547Z,19.70
2019-05-30T12:15:35.798Z,19.80
2019-05-30T12:20:41.691Z,19.70
2019-05-30T12:25:48.591Z,20.20
2019-05-30T12:30:58.277Z,20.20
2019-05-30T12:36:01.108Z,20.20
2019-05-30T12:41:06.110Z,20.00
2019-05-30T12:46:11.069Z,20.20
2019-05-30T12:51:16.041Z,20.10
2019-05-30T12:56:20.950Z,20.10
2019-05-30T13:01:27.478Z,20.00
2019-05-30T13:06:32.902Z,20.10
2019-05-30T13:11:38.319Z,20.10
2019-05-30T13:16:43.502Z,20.10
2019-05-30T13:21:48.819Z,20.30
2019-05-30T13:26:55.524Z,20.50
2019-05-30T13:32:00.945Z,20.50
2019-05-30T13:37:07.075Z,20.40
2019-05-30T13:42:12.456Z,20.50
2019-05-30T13:47:17.382Z,20.60
2019-05-30T13:52:22.454Z,20.50
2019-05-30T13:57:27.735Z,20.40
2019-05-30T14:02:33.089Z,20.20
2019-05-30T14:07:38.393Z,20.20
2019-05-30T14:12:43.553Z,20.60
2019-05-30T14:17:49.561Z,20.70
2019-05-30T14:22:55.028Z,20.70
2019-05-30T14:28:00.009Z,20.90
2019-05-30T14:33:06.080Z,20.80
2019-05-30T14:38:11.179Z,21.00
2019-05-30T14:43:16.149Z,21.10
2019-05-30T14:48:21.380Z,21.00
2019-05-30T14:53:26.637Z,20.90
2019-05-30T14:58:31.597Z,20.90
2019-05-30T15:03:36.597Z,20.50
2019-05-30T15:08:41.703Z,20.40
2019-05-30T15:13:46.751Z,20.30
2019-05-30T15:18:51.902Z,20.30
2019-05-30T15:23:57.013Z,20.30
2019-05-30T15:29:02.429Z,20.20
2019-05-30T15:34:08.399Z,20.10
2019-05-30T15:39:13.582Z,20.20
2019-05-30T15:44:19.321Z,20.30
2019-05-30T15:49:24.690Z,20.20
2019-05-30T15:54:29.766Z,20.40
2019-05-30T15:59:34.861Z,20.50
2019-05-30T16:04:40.130Z,20.70
2019-05-30T16:09:47.363Z,20.80
2019-05-30T16:14:52.437Z,20.80
2019-05-30T16:19:57.898Z,20.80
2019-05-30T16:25:03.327Z,20.80
2019-05-30T16:30:10.002Z,20.90
2019-05-30T16:35:16.002Z,20.80
2019-05-30T16:40:22.308Z,20.90
2019-05-30T16:45:27.513Z,21.10
2019-05-30T16:50:32.493Z,20.90
2019-05-30T16:55:37.512Z,21.00
2019-05-30T17:00:44.096Z,21.00
2019-05-30T17:05:49.751Z,21.20
2019-05-30T17:10:55.963Z,21.10
2019-05-30T17:16:01.033Z,20.90
2019-05-30T17:21:07.056Z,20.90
2019-05-30T17:26:12.333Z,21.00
2019-05-30T17:31:17.687Z,20.90
2019-05-30T17:36:24.201Z,20.80
2019-05-30T17:41:29.457Z,20.70
2019-05-30T17:46:34.890Z,20.80
2019-05-30T17:51:39.936Z,20.80
2019-05-30T17:56:45.418Z,20.70
2019-05-30T18:01:50.361Z,20.60
2019-05-30T18:06:55.925Z,20.50
2019-05-30T18:12:01.342Z,20.40
2019-05-30T18:17:09.288Z,20.40
2019-05-30T18:22:12.945Z,20.40
2019-05-30T18:27:18.434Z,20.30
2019-05-30T18:32:24.101Z,20.30
2019-05-30T18:37:30.503Z,20.30
2019-05-30T18:42:35.927Z,20.20
2019-05-30T18:47:41.155Z,20.10
2019-05-30T18:52:46.407Z,20.00
2019-05-30T18:57:51.841Z,19.90
2019-05-30T19:02:56.841Z,19.90
2019-05-30T19:08:02.057Z,19.90
2019-05-30T19:13:07.249Z,19.80
2019-05-30T19:18:12.221Z,19.70
2019-05-30T19:23:17.225Z,19.70
2019-05-30T19:28:22.449Z,19.70
2019-05-30T19:33:28.812Z,19.60
2019-05-30T19:38:33.895Z,19.60
2019-05-30T19:43:38.882Z,19.60
2019-05-30T19:48:44.202Z,19.50
2019-05-30T19:53:49.208Z,19.40
2019-05-30T19:58:54.071Z,19.20
2019-05-30T20:03:59.786Z,19.30
2019-05-30T20:09:07.241Z,19.20
2019-05-30T20:14:12.571Z,19.10
2019-05-30T20:19:17.867Z,19.10
2019-05-30T20:24:23.007Z,19.10
2019-05-30T20:29:28.498Z,19.00
2019-05-30T20:34:34.740Z,18.90
2019-05-30T20:39:40.821Z,18.90
2019-05-30T20:44:47.197Z,18.90
2019-05-30T20:49:52.205Z,18.80
2019-05-30T20:54:57.141Z,18.70
2019-05-30T21:00:02.873Z,18.60
2019-05-30T21:05:08.179Z,18.50
2019-05-30T21:10:14.122Z,18.50
2019-05-30T21:15:19.460Z,18.40
2019-05-30T21:20:24.545Z,18.30
2019-05-30T21:25:29.522Z,18.20
2019-05-30T21:30:34.506Z,18.20
2019-05-30T21:35:39.873Z,18.10
2019-05-30T21:40:46.554Z,18.20
2019-05-30T21:45:51.899Z,18.10
2019-05-30T21:50:57.169Z,17.80
2019-05-30T21:56:02.739Z,17.90
2019-05-30T22:01:34.009Z,17.90
2019-05-30T22:06:39.009Z,17.90
2019-05-30T22:11:45.595Z,17.80
2019-05-30T22:16:52.248Z,17.90
2019-05-30T22:21:57.405Z,17.80
2019-05-30T22:27:02.968Z,17.60
2019-05-30T22:32:11.212Z,17.60
2019-05-30T22:37:17.109Z,17.70
2019-05-30T22:42:22.357Z,17.50
2019-05-30T22:47:27.630Z,17.50
2019-05-30T22:52:32.795Z,17.40
2019-05-30T22:57:37.743Z,17.50
2019-05-30T23:02:43.001Z,17.30
2019-05-30T23:07:49.315Z,17.50
2019-05-30T23:12:55.967Z,17.30
2019-05-30T23:18:01.241Z,17.30
2019-05-30T23:23:06.141Z,17.20
2019-05-30T23:28:11.117Z,17.20
2019-05-30T23:33:16.310Z,17.10
2019-05-30T23:38:21.218Z,17.00
2019-05-30T23:43:26.142Z,16.90
2019-05-30T23:48:31.230Z,17.00
2019-05-30T23:53:36.151Z,17.10
2019-05-30T23:58:40.993Z,17.20
